sensor_id;sensor_type;location;lat;lon;timestamp;P1;durP1;ratioP1;P2;durP2;ratioP2
23718;SDS011;43322;52.230;5.702;2023-08-24T00:00:49;5.72;;;5.22;;
23718;SDS011;43322;52.230;5.702;2023-08-24T00:03:16;6.35;;;5.50;;
23718;SDS011;43322;52.230;5.702;2023-08-24T00:05:42;5.70;;;5.05;;
23718;SDS011;43322;52.230;5.702;2023-08-24T00:08:09;5.97;;;5.47;;
23718;SDS011;43322;52.230;5.702;2023-08-24T00:10:36;8.18;;;5.47;;
23718;SDS011;43322;52.230;5.702;2023-08-24T00:13:03;9.30;;;5.53;;
23718;SDS011;43322;52.230;5.702;2023-08-24T00:15:31;10.35;;;6.10;;
23718;SDS011;43322;52.230;5.702;2023-08-24T00:17:58;7.13;;;5.63;;
23718;SDS011;43322;52.230;5.702;2023-08-24T00:20:25;5.78;;;5.25;;
23718;SDS011;43322;52.230;5.702;2023-08-24T00:22:52;6.40;;;5.57;;
23718;SDS011;43322;52.230;5.702;2023-08-24T00:25:19;5.70;;;5.38;;
23718;SDS011;43322;52.230;5.702;2023-08-24T00:27:45;9.75;;;5.80;;
23718;SDS011;43322;52.230;5.702;2023-08-24T00:30:13;6.15;;;5.65;;
23718;SDS011;43322;52.230;5.702;2023-08-24T00:32:41;7.88;;;5.43;;
23718;SDS011;43322;52.230;5.702;2023-08-24T00:35:08;5.93;;;5.30;;
23718;SDS011;43322;52.230;5.702;2023-08-24T00:37:35;6.18;;;5.63;;
23718;SDS011;43322;52.230;5.702;2023-08-24T00:40:02;5.72;;;5.32;;
23718;SDS011;43322;52.230;5.702;2023-08-24T00:42:36;9.05;;;6.07;;
23718;SDS011;43322;52.230;5.702;2023-08-24T00:45:04;6.88;;;6.18;;
23718;SDS011;43322;52.230;5.702;2023-08-24T00:47:32;6.35;;;5.78;;
23718;SDS011;43322;52.230;5.702;2023-08-24T00:50:01;8.93;;;6.35;;
23718;SDS011;43322;52.230;5.702;2023-08-24T00:52:28;5.57;;;5.00;;
23718;SDS011;43322;52.230;5.702;2023-08-24T00:54:57;7.13;;;5.47;;
23718;SDS011;43322;52.230;5.702;2023-08-24T00:57:25;6.38;;;5.80;;
23718;SDS011;43322;52.230;5.702;2023-08-24T00:59:52;5.88;;;5.47;;
23718;SDS011;43322;52.230;5.702;2023-08-24T01:02:18;6.32;;;5.82;;
23718;SDS011;43322;52.230;5.702;2023-08-24T01:04:46;8.18;;;6.32;;
23718;SDS011;43322;52.230;5.702;2023-08-24T01:07:14;6.35;;;5.78;;
23718;SDS011;43322;52.230;5.702;2023-08-24T01:09:42;7.10;;;6.28;;
23718;SDS011;43322;52.230;5.702;2023-08-24T01:12:12;6.90;;;6.20;;
23718;SDS011;43322;52.230;5.702;2023-08-24T01:14:47;6.93;;;6.30;;
23718;SDS011;43322;52.230;5.702;2023-08-24T01:17:22;7.97;;;5.90;;
23718;SDS011;43322;52.230;5.702;2023-08-24T01:19:52;5.85;;;5.35;;
23718;SDS011;43322;52.230;5.702;2023-08-24T01:22:25;6.28;;;5.78;;
23718;SDS011;43322;52.230;5.702;2023-08-24T01:25:00;7.32;;;6.78;;
23718;SDS011;43322;52.230;5.702;2023-08-24T01:27:35;9.45;;;6.65;;
23718;SDS011;43322;52.230;5.702;2023-08-24T01:30:02;5.55;;;5.15;;
23718;SDS011;43322;52.230;5.702;2023-08-24T01:32:30;5.97;;;5.32;;
23718;SDS011;43322;52.230;5.702;2023-08-24T01:34:58;7.13;;;6.53;;
23718;SDS011;43322;52.230;5.702;2023-08-24T01:37:24;7.10;;;6.55;;
23718;SDS011;43322;52.230;5.702;2023-08-24T01:39:54;10.48;;;6.65;;
23718;SDS011;43322;52.230;5.702;2023-08-24T01:42:31;5.63;;;5.15;;
23718;SDS011;43322;52.230;5.702;2023-08-24T01:45:03;6.28;;;5.78;;
23718;SDS011;43322;52.230;5.702;2023-08-24T01:47:33;6.60;;;5.30;;
23718;SDS011;43322;52.230;5.702;2023-08-24T01:50:01;6.72;;;5.88;;
23718;SDS011;43322;52.230;5.702;2023-08-24T01:52:29;7.38;;;5.95;;
23718;SDS011;43322;52.230;5.702;2023-08-24T01:54:56;6.10;;;5.65;;
23718;SDS011;43322;52.230;5.702;2023-08-24T01:57:22;7.10;;;6.38;;
23718;SDS011;43322;52.230;5.702;2023-08-24T01:59:49;5.95;;;5.43;;
23718;SDS011;43322;52.230;5.702;2023-08-24T02:02:17;6.15;;;5.65;;
23718;SDS011;43322;52.230;5.702;2023-08-24T02:04:44;5.15;;;4.78;;
23718;SDS011;43322;52.230;5.702;2023-08-24T02:07:11;7.75;;;6.88;;
23718;SDS011;43322;52.230;5.702;2023-08-24T02:09:37;7.15;;;6.45;;
23718;SDS011;43322;52.230;5.702;2023-08-24T02:12:04;5.63;;;5.32;;
23718;SDS011;43322;52.230;5.702;2023-08-24T02:14:31;6.38;;;5.88;;
23718;SDS011;43322;52.230;5.702;2023-08-24T02:16:57;6.53;;;5.82;;
23718;SDS011;43322;52.230;5.702;2023-08-24T02:19:25;7.50;;;6.00;;
23718;SDS011;43322;52.230;5.702;2023-08-24T02:21:52;7.35;;;6.70;;
23718;SDS011;43322;52.230;5.702;2023-08-24T02:24:19;6.95;;;6.35;;
23718;SDS011;43322;52.230;5.702;2023-08-24T02:26:45;6.82;;;6.25;;
23718;SDS011;43322;52.230;5.702;2023-08-24T02:29:12;9.07;;;6.53;;
23718;SDS011;43322;52.230;5.702;2023-08-24T02:31:39;7.72;;;7.07;;
23718;SDS011;43322;52.230;5.702;2023-08-24T02:34:05;8.18;;;7.43;;
23718;SDS011;43322;52.230;5.702;2023-08-24T02:36:33;9.70;;;7.05;;
23718;SDS011;43322;52.230;5.702;2023-08-24T02:39:00;7.85;;;7.13;;
23718;SDS011;43322;52.230;5.702;2023-08-24T02:41:27;7.88;;;7.05;;
23718;SDS011;43322;52.230;5.702;2023-08-24T02:43:54;9.32;;;7.22;;
23718;SDS011;43322;52.230;5.702;2023-08-24T02:46:20;8.25;;;7.35;;
23718;SDS011;43322;52.230;5.702;2023-08-24T02:48:47;8.73;;;7.18;;
23718;SDS011;43322;52.230;5.702;2023-08-24T02:51:14;7.40;;;6.78;;
23718;SDS011;43322;52.230;5.702;2023-08-24T02:53:42;9.98;;;6.95;;
23718;SDS011;43322;52.230;5.702;2023-08-24T02:56:09;8.45;;;7.57;;
23718;SDS011;43322;52.230;5.702;2023-08-24T02:58:35;11.82;;;7.78;;
23718;SDS011;43322;52.230;5.702;2023-08-24T03:01:04;7.60;;;6.97;;
23718;SDS011;43322;52.230;5.702;2023-08-24T03:03:32;6.90;;;6.30;;
23718;SDS011;43322;52.230;5.702;2023-08-24T03:06:00;7.90;;;7.28;;
23718;SDS011;43322;52.230;5.702;2023-08-24T03:08:28;7.85;;;7.25;;
23718;SDS011;43322;52.230;5.702;2023-08-24T03:10:56;7.70;;;7.05;;
23718;SDS011;43322;52.230;5.702;2023-08-24T03:13:23;8.20;;;7.40;;
23718;SDS011;43322;52.230;5.702;2023-08-24T03:15:50;9.15;;;8.25;;
23718;SDS011;43322;52.230;5.702;2023-08-24T03:18:17;11.50;;;8.90;;
23718;SDS011;43322;52.230;5.702;2023-08-24T03:20:45;8.38;;;7.65;;
23718;SDS011;43322;52.230;5.702;2023-08-24T03:23:13;11.30;;;8.13;;
23718;SDS011;43322;52.230;5.702;2023-08-24T03:25:40;8.10;;;7.25;;
23718;SDS011;43322;52.230;5.702;2023-08-24T03:28:09;13.55;;;8.00;;
23718;SDS011;43322;52.230;5.702;2023-08-24T03:30:36;8.00;;;7.32;;
23718;SDS011;43322;52.230;5.702;2023-08-24T03:33:05;7.57;;;6.93;;
23718;SDS011;43322;52.230;5.702;2023-08-24T03:35:32;8.25;;;7.45;;
23718;SDS011;43322;52.230;5.702;2023-08-24T03:37:59;9.95;;;7.93;;
23718;SDS011;43322;52.230;5.702;2023-08-24T03:40:26;8.25;;;7.28;;
23718;SDS011;43322;52.230;5.702;2023-08-24T03:42:53;8.38;;;7.57;;
23718;SDS011;43322;52.230;5.702;2023-08-24T03:45:21;10.30;;;7.90;;
23718;SDS011;43322;52.230;5.702;2023-08-24T03:47:48;7.90;;;7.20;;
23718;SDS011;43322;52.230;5.702;2023-08-24T03:50:15;8.70;;;7.80;;
23718;SDS011;43322;52.230;5.702;2023-08-24T03:52:42;10.63;;;8.32;;
23718;SDS011;43322;52.230;5.702;2023-08-24T03:55:09;10.82;;;7.85;;
23718;SDS011;43322;52.230;5.702;2023-08-24T03:57:36;8.75;;;7.80;;
23718;SDS011;43322;52.230;5.702;2023-08-24T04:00:04;9.70;;;8.25;;
23718;SDS011;43322;52.230;5.702;2023-08-24T04:02:37;10.75;;;8.68;;
23718;SDS011;43322;52.230;5.702;2023-08-24T04:05:04;9.45;;;8.55;;
23718;SDS011;43322;52.230;5.702;2023-08-24T04:07:30;10.95;;;8.13;;
23718;SDS011;43322;52.230;5.702;2023-08-24T04:09:58;10.52;;;8.88;;
23718;SDS011;43322;52.230;5.702;2023-08-24T04:12:24;10.85;;;9.20;;
23718;SDS011;43322;52.230;5.702;2023-08-24T04:14:51;10.15;;;8.65;;
23718;SDS011;43322;52.230;5.702;2023-08-24T04:17:18;10.02;;;8.38;;
23718;SDS011;43322;52.230;5.702;2023-08-24T04:19:46;9.85;;;8.60;;
23718;SDS011;43322;52.230;5.702;2023-08-24T04:22:13;9.43;;;8.45;;
23718;SDS011;43322;52.230;5.702;2023-08-24T04:24:39;9.68;;;8.38;;
23718;SDS011;43322;52.230;5.702;2023-08-24T04:27:06;11.10;;;8.65;;
23718;SDS011;43322;52.230;5.702;2023-08-24T04:29:33;10.48;;;9.25;;
23718;SDS011;43322;52.230;5.702;2023-08-24T04:32:00;10.27;;;9.27;;
23718;SDS011;43322;52.230;5.702;2023-08-24T04:34:26;10.10;;;9.10;;
23718;SDS011;43322;52.230;5.702;2023-08-24T04:36:54;11.65;;;9.07;;
23718;SDS011;43322;52.230;5.702;2023-08-24T04:39:21;8.95;;;8.05;;
23718;SDS011;43322;52.230;5.702;2023-08-24T04:41:47;9.65;;;8.75;;
23718;SDS011;43322;52.230;5.702;2023-08-24T04:44:14;9.85;;;9.02;;
23718;SDS011;43322;52.230;5.702;2023-08-24T04:46:41;9.93;;;8.93;;
23718;SDS011;43322;52.230;5.702;2023-08-24T04:49:07;10.73;;;8.55;;
23718;SDS011;43322;52.230;5.702;2023-08-24T04:51:34;9.55;;;8.65;;
23718;SDS011;43322;52.230;5.702;2023-08-24T04:54:02;9.30;;;8.27;;
23718;SDS011;43322;52.230;5.702;2023-08-24T04:56:29;8.55;;;7.60;;
23718;SDS011;43322;52.230;5.702;2023-08-24T04:58:56;7.78;;;7.18;;
23718;SDS011;43322;52.230;5.702;2023-08-24T05:01:25;9.05;;;8.30;;
23718;SDS011;43322;52.230;5.702;2023-08-24T05:03:52;10.48;;;8.52;;
23718;SDS011;43322;52.230;5.702;2023-08-24T05:06:19;7.90;;;7.20;;
23718;SDS011;43322;52.230;5.702;2023-08-24T05:08:46;9.35;;;7.53;;
23718;SDS011;43322;52.230;5.702;2023-08-24T05:11:16;8.23;;;6.93;;
23718;SDS011;43322;52.230;5.702;2023-08-24T05:13:44;6.28;;;5.85;;
23718;SDS011;43322;52.230;5.702;2023-08-24T05:16:11;9.13;;;6.50;;
23718;SDS011;43322;52.230;5.702;2023-08-24T05:18:39;7.18;;;6.68;;
23718;SDS011;43322;52.230;5.702;2023-08-24T05:21:06;8.23;;;7.55;;
23718;SDS011;43322;52.230;5.702;2023-08-24T05:23:33;7.85;;;7.25;;
23718;SDS011;43322;52.230;5.702;2023-08-24T05:26:00;7.53;;;6.97;;
23718;SDS011;43322;52.230;5.702;2023-08-24T05:28:30;7.28;;;6.65;;
23718;SDS011;43322;52.230;5.702;2023-08-24T05:30:57;7.25;;;6.70;;
23718;SDS011;43322;52.230;5.702;2023-08-24T05:33:25;7.13;;;6.70;;
23718;SDS011;43322;52.230;5.702;2023-08-24T05:35:55;7.93;;;7.25;;
23718;SDS011;43322;52.230;5.702;2023-08-24T05:38:22;6.45;;;6.00;;
23718;SDS011;43322;52.230;5.702;2023-08-24T05:40:49;10.32;;;7.63;;
23718;SDS011;43322;52.230;5.702;2023-08-24T05:43:16;7.28;;;6.65;;
23718;SDS011;43322;52.230;5.702;2023-08-24T05:45:44;9.38;;;7.45;;
23718;SDS011;43322;52.230;5.702;2023-08-24T05:48:12;8.13;;;7.43;;
23718;SDS011;43322;52.230;5.702;2023-08-24T05:50:41;7.60;;;7.00;;
23718;SDS011;43322;52.230;5.702;2023-08-24T05:53:09;11.18;;;8.05;;
23718;SDS011;43322;52.230;5.702;2023-08-24T05:55:35;8.75;;;7.63;;
23718;SDS011;43322;52.230;5.702;2023-08-24T05:58:03;7.70;;;7.07;;
23718;SDS011;43322;52.230;5.702;2023-08-24T06:00:30;8.45;;;7.65;;
23718;SDS011;43322;52.230;5.702;2023-08-24T06:02:58;9.30;;;8.48;;
23718;SDS011;43322;52.230;5.702;2023-08-24T06:05:25;9.15;;;8.35;;
23718;SDS011;43322;52.230;5.702;2023-08-24T06:07:51;11.48;;;10.40;;
23718;SDS011;43322;52.230;5.702;2023-08-24T06:10:19;11.15;;;9.55;;
23718;SDS011;43322;52.230;5.702;2023-08-24T06:12:46;10.13;;;9.07;;
23718;SDS011;43322;52.230;5.702;2023-08-24T06:15:13;9.13;;;8.23;;
23718;SDS011;43322;52.230;5.702;2023-08-24T06:17:41;11.13;;;8.25;;
23718;SDS011;43322;52.230;5.702;2023-08-24T06:20:09;9.52;;;8.55;;
23718;SDS011;43322;52.230;5.702;2023-08-24T06:22:37;10.88;;;9.77;;
23718;SDS011;43322;52.230;5.702;2023-08-24T06:25:04;10.63;;;9.02;;
23718;SDS011;43322;52.230;5.702;2023-08-24T06:27:33;9.10;;;8.15;;
23718;SDS011;43322;52.230;5.702;2023-08-24T06:30:00;9.30;;;8.38;;
23718;SDS011;43322;52.230;5.702;2023-08-24T06:32:28;10.23;;;8.55;;
23718;SDS011;43322;52.230;5.702;2023-08-24T06:34:55;9.40;;;8.30;;
23718;SDS011;43322;52.230;5.702;2023-08-24T06:37:23;10.35;;;8.95;;
23718;SDS011;43322;52.230;5.702;2023-08-24T06:39:49;10.90;;;8.88;;
23718;SDS011;43322;52.230;5.702;2023-08-24T06:42:16;9.05;;;8.15;;
23718;SDS011;43322;52.230;5.702;2023-08-24T06:44:43;7.70;;;7.00;;
23718;SDS011;43322;52.230;5.702;2023-08-24T06:47:09;8.68;;;7.88;;
23718;SDS011;43322;52.230;5.702;2023-08-24T06:49:36;7.20;;;6.57;;
23718;SDS011;43322;52.230;5.702;2023-08-24T06:52:03;11.13;;;8.25;;
23718;SDS011;43322;52.230;5.702;2023-08-24T06:54:32;8.90;;;8.10;;
23718;SDS011;43322;52.230;5.702;2023-08-24T06:56:58;11.68;;;9.18;;
23718;SDS011;43322;52.230;5.702;2023-08-24T06:59:25;11.48;;;8.43;;
23718;SDS011;43322;52.230;5.702;2023-08-24T07:01:52;10.63;;;9.60;;
23718;SDS011;43322;52.230;5.702;2023-08-24T07:04:18;10.27;;;8.80;;
23718;SDS011;43322;52.230;5.702;2023-08-24T07:06:45;10.60;;;9.02;;
23718;SDS011;43322;52.230;5.702;2023-08-24T07:09:12;9.18;;;8.25;;
23718;SDS011;43322;52.230;5.702;2023-08-24T07:11:41;9.23;;;7.85;;
23718;SDS011;43322;52.230;5.702;2023-08-24T07:14:08;9.45;;;8.65;;
23718;SDS011;43322;52.230;5.702;2023-08-24T07:16:34;8.15;;;7.45;;
23718;SDS011;43322;52.230;5.702;2023-08-24T07:19:01;10.07;;;7.97;;
23718;SDS011;43322;52.230;5.702;2023-08-24T07:21:29;8.43;;;7.57;;
23718;SDS011;43322;52.230;5.702;2023-08-24T07:23:55;8.73;;;7.82;;
23718;SDS011;43322;52.230;5.702;2023-08-24T07:26:22;8.93;;;8.02;;
23718;SDS011;43322;52.230;5.702;2023-08-24T07:28:51;14.80;;;10.10;;
23718;SDS011;43322;52.230;5.702;2023-08-24T07:31:18;10.05;;;9.20;;
23718;SDS011;43322;52.230;5.702;2023-08-24T07:33:45;8.60;;;7.78;;
23718;SDS011;43322;52.230;5.702;2023-08-24T07:36:11;10.30;;;9.40;;
23718;SDS011;43322;52.230;5.702;2023-08-24T07:38:38;9.07;;;8.25;;
23718;SDS011;43322;52.230;5.702;2023-08-24T07:41:05;10.85;;;8.95;;
23718;SDS011;43322;52.230;5.702;2023-08-24T07:43:36;11.70;;;8.50;;
23718;SDS011;43322;52.230;5.702;2023-08-24T07:46:04;9.23;;;7.97;;
23718;SDS011;43322;52.230;5.702;2023-08-24T07:48:31;8.55;;;7.75;;
23718;SDS011;43322;52.230;5.702;2023-08-24T07:50:57;11.05;;;9.60;;
23718;SDS011;43322;52.230;5.702;2023-08-24T07:53:24;9.00;;;8.20;;
23718;SDS011;43322;52.230;5.702;2023-08-24T07:55:52;9.85;;;8.98;;
23718;SDS011;43322;52.230;5.702;2023-08-24T07:58:19;9.40;;;8.40;;
23718;SDS011;43322;52.230;5.702;2023-08-24T08:00:48;12.95;;;10.02;;
23718;SDS011;43322;52.230;5.702;2023-08-24T08:03:17;9.73;;;8.82;;
23718;SDS011;43322;52.230;5.702;2023-08-24T08:05:43;9.20;;;8.40;;
23718;SDS011;43322;52.230;5.702;2023-08-24T08:08:10;9.18;;;8.30;;
23718;SDS011;43322;52.230;5.702;2023-08-24T08:10:38;8.30;;;7.50;;
23718;SDS011;43322;52.230;5.702;2023-08-24T08:13:04;8.68;;;7.40;;
23718;SDS011;43322;52.230;5.702;2023-08-24T08:15:31;7.30;;;6.70;;
23718;SDS011;43322;52.230;5.702;2023-08-24T08:17:58;9.45;;;7.60;;
23718;SDS011;43322;52.230;5.702;2023-08-24T08:20:26;7.40;;;6.65;;
23718;SDS011;43322;52.230;5.702;2023-08-24T08:22:53;7.18;;;6.40;;
23718;SDS011;43322;52.230;5.702;2023-08-24T08:25:20;8.95;;;6.95;;
23718;SDS011;43322;52.230;5.702;2023-08-24T08:27:47;9.55;;;6.95;;
23718;SDS011;43322;52.230;5.702;2023-08-24T08:30:14;5.40;;;4.95;;
23718;SDS011;43322;52.230;5.702;2023-08-24T08:32:41;6.55;;;5.82;;
23718;SDS011;43322;52.230;5.702;2023-08-24T08:35:08;8.93;;;5.47;;
23718;SDS011;43322;52.230;5.702;2023-08-24T08:37:36;6.15;;;5.13;;
23718;SDS011;43322;52.230;5.702;2023-08-24T08:40:03;6.47;;;4.60;;
23718;SDS011;43322;52.230;5.702;2023-08-24T08:42:31;5.50;;;4.40;;
23718;SDS011;43322;52.230;5.702;2023-08-24T08:45:00;4.65;;;4.35;;
23718;SDS011;43322;52.230;5.702;2023-08-24T08:47:30;5.22;;;4.07;;
23718;SDS011;43322;52.230;5.702;2023-08-24T08:49:57;5.50;;;3.90;;
23718;SDS011;43322;52.230;5.702;2023-08-24T08:52:25;5.50;;;3.83;;
23718;SDS011;43322;52.230;5.702;2023-08-24T08:54:53;4.07;;;3.78;;
23718;SDS011;43322;52.230;5.702;2023-08-24T08:57:20;3.65;;;3.35;;
23718;SDS011;43322;52.230;5.702;2023-08-24T08:59:49;4.68;;;3.50;;
23718;SDS011;43322;52.230;5.702;2023-08-24T09:02:17;4.55;;;3.40;;
23718;SDS011;43322;52.230;5.702;2023-08-24T09:04:45;3.67;;;3.35;;
23718;SDS011;43322;52.230;5.702;2023-08-24T09:07:13;3.92;;;3.65;;
23718;SDS011;43322;52.230;5.702;2023-08-24T09:09:40;4.28;;;3.97;;
23718;SDS011;43322;52.230;5.702;2023-08-24T09:12:09;4.00;;;3.47;;
23718;SDS011;43322;52.230;5.702;2023-08-24T09:14:36;3.65;;;3.45;;
23718;SDS011;43322;52.230;5.702;2023-08-24T09:17:02;8.02;;;3.50;;
23718;SDS011;43322;52.230;5.702;2023-08-24T09:19:30;3.63;;;3.33;;
23718;SDS011;43322;52.230;5.702;2023-08-24T09:21:57;5.72;;;3.33;;
23718;SDS011;43322;52.230;5.702;2023-08-24T09:24:29;4.00;;;3.60;;
23718;SDS011;43322;52.230;5.702;2023-08-24T09:26:57;4.03;;;3.53;;
23718;SDS011;43322;52.230;5.702;2023-08-24T09:29:25;4.40;;;4.10;;
23718;SDS011;43322;52.230;5.702;2023-08-24T09:31:53;6.50;;;4.28;;
23718;SDS011;43322;52.230;5.702;2023-08-24T09:34:20;5.97;;;3.83;;
23718;SDS011;43322;52.230;5.702;2023-08-24T09:36:51;5.53;;;3.67;;
23718;SDS011;43322;52.230;5.702;2023-08-24T09:39:18;4.22;;;3.83;;
23718;SDS011;43322;52.230;5.702;2023-08-24T09:41:45;3.90;;;3.60;;
23718;SDS011;43322;52.230;5.702;2023-08-24T09:44:14;4.53;;;4.03;;
23718;SDS011;43322;52.230;5.702;2023-08-24T09:46:44;7.80;;;3.90;;
23718;SDS011;43322;52.230;5.702;2023-08-24T09:49:11;4.50;;;4.10;;
23718;SDS011;43322;52.230;5.702;2023-08-24T09:51:38;9.60;;;4.05;;
23718;SDS011;43322;52.230;5.702;2023-08-24T09:54:07;6.20;;;4.28;;
23718;SDS011;43322;52.230;5.702;2023-08-24T09:56:35;3.97;;;3.63;;
23718;SDS011;43322;52.230;5.702;2023-08-24T09:59:07;9.85;;;3.95;;
23718;SDS011;43322;52.230;5.702;2023-08-24T10:01:40;4.50;;;4.10;;
23718;SDS011;43322;52.230;5.702;2023-08-24T10:04:12;5.13;;;3.67;;
23718;SDS011;43322;52.230;5.702;2023-08-24T10:06:40;4.72;;;3.67;;
23718;SDS011;43322;52.230;5.702;2023-08-24T10:09:10;4.05;;;3.38;;
23718;SDS011;43322;52.230;5.702;2023-08-24T10:11:42;4.40;;;3.50;;
23718;SDS011;43322;52.230;5.702;2023-08-24T10:14:24;8.10;;;4.55;;
23718;SDS011;43322;52.230;5.702;2023-08-24T10:16:56;4.13;;;3.72;;
23718;SDS011;43322;52.230;5.702;2023-08-24T10:19:24;3.80;;;3.50;;
23718;SDS011;43322;52.230;5.702;2023-08-24T10:21:51;3.85;;;3.60;;
23718;SDS011;43322;52.230;5.702;2023-08-24T10:24:22;7.07;;;3.67;;
23718;SDS011;43322;52.230;5.702;2023-08-24T10:26:49;6.82;;;3.70;;
23718;SDS011;43322;52.230;5.702;2023-08-24T10:29:16;5.13;;;3.97;;
23718;SDS011;43322;52.230;5.702;2023-08-24T10:31:44;5.65;;;3.50;;
23718;SDS011;43322;52.230;5.702;2023-08-24T10:34:12;5.60;;;3.90;;
23718;SDS011;43322;52.230;5.702;2023-08-24T10:36:39;4.50;;;3.50;;
23718;SDS011;43322;52.230;5.702;2023-08-24T10:39:06;4.10;;;3.47;;
23718;SDS011;43322;52.230;5.702;2023-08-24T10:41:45;4.70;;;4.25;;
23718;SDS011;43322;52.230;5.702;2023-08-24T10:44:19;6.40;;;4.05;;
23718;SDS011;43322;52.230;5.702;2023-08-24T10:49:33;4.88;;;3.75;;
23718;SDS011;43322;52.230;5.702;2023-08-24T10:54:42;5.90;;;3.75;;
23718;SDS011;43322;52.230;5.702;2023-08-24T10:57:10;6.05;;;3.60;;
23718;SDS011;43322;52.230;5.702;2023-08-24T10:59:44;3.78;;;3.47;;
23718;SDS011;43322;52.230;5.702;2023-08-24T11:02:17;4.72;;;4.28;;
23718;SDS011;43322;52.230;5.702;2023-08-24T11:07:31;4.68;;;3.83;;
23718;SDS011;43322;52.230;5.702;2023-08-24T11:09:58;3.63;;;3.38;;
23718;SDS011;43322;52.230;5.702;2023-08-24T11:12:25;4.32;;;4.03;;
23718;SDS011;43322;52.230;5.702;2023-08-24T11:14:53;4.15;;;3.95;;
23718;SDS011;43322;52.230;5.702;2023-08-24T11:17:23;5.43;;;4.57;;
23718;SDS011;43322;52.230;5.702;2023-08-24T11:19:51;4.72;;;4.32;;
23718;SDS011;43322;52.230;5.702;2023-08-24T11:22:19;5.65;;;5.10;;
23718;SDS011;43322;52.230;5.702;2023-08-24T11:24:47;8.27;;;4.55;;
23718;SDS011;43322;52.230;5.702;2023-08-24T11:27:15;4.50;;;4.10;;
23718;SDS011;43322;52.230;5.702;2023-08-24T11:29:41;4.68;;;3.95;;
23718;SDS011;43322;52.230;5.702;2023-08-24T11:32:08;6.10;;;4.20;;
23718;SDS011;43322;52.230;5.702;2023-08-24T11:34:35;4.80;;;4.40;;
23718;SDS011;43322;52.230;5.702;2023-08-24T11:37:02;5.00;;;4.47;;
23718;SDS011;43322;52.230;5.702;2023-08-24T11:39:30;4.30;;;4.00;;
23718;SDS011;43322;52.230;5.702;2023-08-24T11:41:58;5.13;;;4.70;;
23718;SDS011;43322;52.230;5.702;2023-08-24T11:44:25;5.80;;;4.70;;
23718;SDS011;43322;52.230;5.702;2023-08-24T11:46:52;6.43;;;5.80;;
23718;SDS011;43322;52.230;5.702;2023-08-24T11:49:19;9.23;;;5.90;;
23718;SDS011;43322;52.230;5.702;2023-08-24T11:51:45;8.25;;;5.95;;
23718;SDS011;43322;52.230;5.702;2023-08-24T11:54:15;6.68;;;5.32;;
23718;SDS011;43322;52.230;5.702;2023-08-24T11:56:43;7.22;;;5.20;;
23718;SDS011;43322;52.230;5.702;2023-08-24T11:59:11;6.32;;;5.63;;
23718;SDS011;43322;52.230;5.702;2023-08-24T12:01:38;11.43;;;6.32;;
23718;SDS011;43322;52.230;5.702;2023-08-24T12:04:06;5.43;;;4.90;;
23718;SDS011;43322;52.230;5.702;2023-08-24T12:06:33;6.65;;;5.38;;
23718;SDS011;43322;52.230;5.702;2023-08-24T12:09:00;5.43;;;4.88;;
23718;SDS011;43322;52.230;5.702;2023-08-24T12:11:28;6.43;;;5.65;;
23718;SDS011;43322;52.230;5.702;2023-08-24T12:13:56;6.35;;;5.20;;
23718;SDS011;43322;52.230;5.702;2023-08-24T12:16:22;5.40;;;4.90;;
23718;SDS011;43322;52.230;5.702;2023-08-24T12:18:50;8.00;;;5.72;;
23718;SDS011;43322;52.230;5.702;2023-08-24T12:21:18;5.00;;;4.60;;
23718;SDS011;43322;52.230;5.702;2023-08-24T12:23:54;4.72;;;4.43;;
23718;SDS011;43322;52.230;5.702;2023-08-24T12:26:21;5.75;;;4.85;;
23718;SDS011;43322;52.230;5.702;2023-08-24T12:28:49;5.80;;;5.28;;
23718;SDS011;43322;52.230;5.702;2023-08-24T12:31:18;6.00;;;5.50;;
23718;SDS011;43322;52.230;5.702;2023-08-24T12:33:46;9.00;;;5.40;;
23718;SDS011;43322;52.230;5.702;2023-08-24T12:36:24;4.90;;;4.57;;
23718;SDS011;43322;52.230;5.702;2023-08-24T12:38:51;6.78;;;4.75;;
23718;SDS011;43322;52.230;5.702;2023-08-24T12:41:18;8.63;;;4.70;;
23718;SDS011;43322;52.230;5.702;2023-08-24T12:43:44;5.43;;;4.90;;
23718;SDS011;43322;52.230;5.702;2023-08-24T12:46:11;7.72;;;4.90;;
23718;SDS011;43322;52.230;5.702;2023-08-24T12:48:39;8.82;;;4.57;;
23718;SDS011;43322;52.230;5.702;2023-08-24T12:51:06;9.98;;;4.20;;
23718;SDS011;43322;52.230;5.702;2023-08-24T12:53:32;11.13;;;5.00;;
23718;SDS011;43322;52.230;5.702;2023-08-24T12:55:59;7.35;;;5.13;;
23718;SDS011;43322;52.230;5.702;2023-08-24T12:58:25;6.10;;;5.50;;
23718;SDS011;43322;52.230;5.702;2023-08-24T13:00:52;5.88;;;4.35;;
23718;SDS011;43322;52.230;5.702;2023-08-24T13:03:19;6.95;;;4.55;;
23718;SDS011;43322;52.230;5.702;2023-08-24T13:05:47;7.13;;;4.70;;
23718;SDS011;43322;52.230;5.702;2023-08-24T13:08:13;6.63;;;4.88;;
23718;SDS011;43322;52.230;5.702;2023-08-24T13:10:40;10.77;;;4.50;;
23718;SDS011;43322;52.230;5.702;2023-08-24T13:13:07;4.85;;;4.47;;
23718;SDS011;43322;52.230;5.702;2023-08-24T13:15:34;5.72;;;4.60;;
23718;SDS011;43322;52.230;5.702;2023-08-24T13:18:00;6.93;;;4.95;;
23718;SDS011;43322;52.230;5.702;2023-08-24T13:20:27;9.98;;;5.22;;
23718;SDS011;43322;52.230;5.702;2023-08-24T13:22:55;7.40;;;5.35;;
23718;SDS011;43322;52.230;5.702;2023-08-24T13:25:22;6.03;;;5.43;;
23718;SDS011;43322;52.230;5.702;2023-08-24T13:27:48;6.13;;;5.20;;
23718;SDS011;43322;52.230;5.702;2023-08-24T13:30:15;5.00;;;4.65;;
23718;SDS011;43322;52.230;5.702;2023-08-24T13:32:42;6.97;;;4.57;;
23718;SDS011;43322;52.230;5.702;2023-08-24T13:35:08;5.47;;;4.97;;
23718;SDS011;43322;52.230;5.702;2023-08-24T13:37:35;5.18;;;4.75;;
23718;SDS011;43322;52.230;5.702;2023-08-24T13:40:04;9.32;;;5.20;;
23718;SDS011;43322;52.230;5.702;2023-08-24T13:42:33;5.65;;;4.55;;
23718;SDS011;43322;52.230;5.702;2023-08-24T13:45:01;9.82;;;5.80;;
23718;SDS011;43322;52.230;5.702;2023-08-24T13:47:28;5.15;;;4.75;;
23718;SDS011;43322;52.230;5.702;2023-08-24T13:49:54;7.00;;;5.88;;
23718;SDS011;43322;52.230;5.702;2023-08-24T13:52:21;5.50;;;4.50;;
23718;SDS011;43322;52.230;5.702;2023-08-24T13:54:48;6.80;;;6.07;;
23718;SDS011;43322;52.230;5.702;2023-08-24T13:57:16;6.03;;;5.47;;
23718;SDS011;43322;52.230;5.702;2023-08-24T13:59:42;8.43;;;5.63;;
23718;SDS011;43322;52.230;5.702;2023-08-24T14:02:09;10.50;;;6.05;;
23718;SDS011;43322;52.230;5.702;2023-08-24T14:04:36;9.35;;;5.35;;
23718;SDS011;43322;52.230;5.702;2023-08-24T14:07:03;7.38;;;6.68;;
23718;SDS011;43322;52.230;5.702;2023-08-24T14:09:30;5.85;;;4.63;;
23718;SDS011;43322;52.230;5.702;2023-08-24T14:11:57;8.25;;;5.13;;
23718;SDS011;43322;52.230;5.702;2023-08-24T14:14:25;7.75;;;5.65;;
23718;SDS011;43322;52.230;5.702;2023-08-24T14:16:55;5.10;;;4.57;;
23718;SDS011;43322;52.230;5.702;2023-08-24T14:19:22;8.57;;;7.30;;
23718;SDS011;43322;52.230;5.702;2023-08-24T14:21:49;10.85;;;7.63;;
23718;SDS011;43322;52.230;5.702;2023-08-24T14:24:16;12.27;;;8.48;;
23718;SDS011;43322;52.230;5.702;2023-08-24T14:26:43;13.63;;;8.98;;
23718;SDS011;43322;52.230;5.702;2023-08-24T14:29:11;9.02;;;6.90;;
23718;SDS011;43322;52.230;5.702;2023-08-24T14:31:39;14.95;;;7.47;;
23718;SDS011;43322;52.230;5.702;2023-08-24T14:34:06;11.88;;;9.30;;
23718;SDS011;43322;52.230;5.702;2023-08-24T14:36:33;15.13;;;8.90;;
23718;SDS011;43322;52.230;5.702;2023-08-24T14:38:59;10.63;;;7.15;;
23718;SDS011;43322;52.230;5.702;2023-08-24T14:41:26;6.65;;;6.00;;
23718;SDS011;43322;52.230;5.702;2023-08-24T14:43:53;9.18;;;6.95;;
23718;SDS011;43322;52.230;5.702;2023-08-24T14:46:19;10.32;;;8.48;;
23718;SDS011;43322;52.230;5.702;2023-08-24T14:48:48;11.73;;;8.20;;
23718;SDS011;43322;52.230;5.702;2023-08-24T14:51:14;13.45;;;9.85;;
23718;SDS011;43322;52.230;5.702;2023-08-24T14:53:41;9.93;;;8.82;;
23718;SDS011;43322;52.230;5.702;2023-08-24T14:56:08;10.32;;;8.88;;